Ocean Springs, Mississippi
Current Conditions -  °F | °C
As of 4:58 AM on Tuesday 21 Oct 2014 (Local Time) from KBIX Reporting Station
Clear Clear  
Wind Chill: 57°   Ceiling: Unl
Heat Index: 57°   Visibility: 10mi
Dew Point: 51°   Wind: 5mph
Humidity: 82%   Direction: 30°NNE
Pressure: 30.02"   Gusts: NA
Location:  30.42°N, 88.81°W
Report Text: KBIX 210958Z AUTO 03004KT 10SM CLR 14/11 A3002 RMK AO2 SLP169 T01370107
Loading
Personal Weather Stations






























Interactive Weather Map
Tropical Storm Tracking
New forecast layout! Learn more

10-Day Weather Forecast

Advertisements
Track Severe Weather on mobile